This is the latest recevied weather packets stored in our database for station/object HG6IQI-10. If no packets are shown the sender has not sent any weather packets the latest 10 day(s).
| Time | Temp. | Humidity | Pressure | Rain* | Wind** | Luminosity | Snow |
|---|---|---|---|---|---|---|---|
| 1777801699 | 19.44° C | 29% | 1022.6 hPa | - | - | - | - |
| 1777800798 | 19.44° C | 28% | 1022.8 hPa | - | - | - | - |
| 1777799898 | 19.44° C | 30% | 1022.9 hPa | - | - | - | - |
| 1777798998 | 18.89° C | 30% | 1022.9 hPa | - | - | - | - |
| 1777798098 | 18.89° C | 30% | 1023.1 hPa | - | - | - | - |
| 1777797198 | 18.33° C | 32% | 1023.2 hPa | - | - | - | - |
| 1777796298 | 18.33° C | 32% | 1023.3 hPa | - | - | - | - |
| 1777795398 | 17.22° C | 33% | 1023.2 hPa | - | - | - | - |
| 1777794498 | 16.67° C | 34% | 1023.4 hPa | - | - | - | - |
| 1777793598 | 16.67° C | 34% | 1023.4 hPa | - | - | - | - |
| 1777792698 | 16.11° C | 36% | 1023.5 hPa | - | - | - | - |
| 1777791798 | 15.56° C | 37% | 1023.4 hPa | - | - | - | - |
| 1777790898 | 15° C | 39% | 1023.4 hPa | - | - | - | - |
| 1777789997 | 13.89° C | 42% | 1023.5 hPa | - | - | - | - |
| 1777789097 | 13.33° C | 49% | 1023.3 hPa | - | - | - | - |
| 1777788197 | 12.22° C | 51% | 1023.4 hPa | - | - | - | - |
| 1777787297 | 11.11° C | 55% | 1023.4 hPa | - | - | - | - |
| 1777786397 | 10.56° C | 56% | 1023.5 hPa | - | - | - | - |
| 1777785497 | 11.11° C | 57% | 1023.4 hPa | - | - | - | - |
| 1777784597 | 10° C | 67% | 1023.4 hPa | - | - | - | - |
| 1777783697 | 6.67° C | 82% | 1023.3 hPa | - | - | - | - |
| 1777782797 | 4.44° C | 85% | 1023.3 hPa | - | - | - | - |
| 1777780997 | 3.33° C | 86% | 1023.2 hPa | - | - | - | - |
| 1777780096 | 2.78° C | 85% | 1023.1 hPa | - | - | - | - |
| 1777779196 | 3.33° C | 85% | 1023.1 hPa | - | - | - | - |
* Rain since midnight (hover to see other rain measurements)
** Current wind speed in m/s (hover to see current wind gust speed)